Time;durP1;ratioP1;P1;durP2;ratioP2;P2;SDS_P1;SDS_P2;PMS_P1;PMS_P2;Temp;Humidity;BMP_temperature;BMP_pressure;BME280_temperature;BME280_humidity;BME280_pressure;Samples;Min_cycle;Max_cycle;Signal;HPM_P1;HPM_P2
2022/01/29 00:00:27;;;;;;;34.85;20.65;;;5.60;79.30;;;;;;5115242;27;20233;-71
2022/01/29 00:02:55;;;;;;;36.13;20.45;;;5.70;79.30;;;;;;5114227;27;20225;-72
2022/01/29 00:05:23;;;;;;;30.58;19.40;;;5.70;79.30;;;;;;5114363;27;20219;-70
2022/01/29 00:07:51;;;;;;;30.48;19.50;;;5.70;79.40;;;;;;5117068;27;20728;-71
2022/01/29 00:10:20;;;;;;;33.28;20.77;;;5.70;79.40;;;;;;5129759;27;20243;-70
2022/01/29 00:12:48;;;;;;;39.35;20.15;;;5.70;79.50;;;;;;5099376;27;20191;-71
2022/01/29 00:15:16;;;;;;;28.40;18.67;;;5.70;79.50;;;;;;5114780;27;20256;-73
2022/01/29 00:17:44;;;;;;;36.17;20.35;;;5.70;79.40;;;;;;5115985;27;20713;-71
2022/01/29 00:20:12;;;;;;;33.05;19.50;;;5.70;79.50;;;;;;5113385;27;20201;-71
2022/01/29 00:22:41;;;;;;;34.92;20.20;;;5.70;79.40;;;;;;5110587;27;20203;-71
2022/01/29 00:25:10;;;;;;;33.33;18.63;;;5.70;79.40;;;;;;5108901;27;20190;-71
2022/01/29 00:27:40;;;;;;;36.45;19.98;;;5.70;79.50;;;;;;5111269;27;20198;-71
2022/01/29 00:30:13;;;;;;;32.20;19.38;;;5.70;79.90;;;;;;5095791;27;20213;-72
2022/01/29 00:32:41;;;;;;;31.10;18.65;;;5.70;79.70;;;;;;5111849;27;20220;-72
2022/01/29 00:35:09;;;;;;;38.65;20.23;;;5.70;79.70;;;;;;5113631;27;20223;-71
2022/01/29 00:37:38;;;;;;;29.85;17.45;;;5.70;79.80;;;;;;5115136;27;20209;-73
2022/01/29 00:40:07;;;;;;;29.98;18.20;;;5.70;79.80;;;;;;5116395;27;20271;-71
2022/01/29 00:42:35;;;;;;;33.92;18.73;;;5.70;79.90;;;;;;5090365;27;20212;-71
2022/01/29 00:45:06;;;;;;;31.52;18.55;;;5.70;79.80;;;;;;5092048;27;20263;-71
2022/01/29 00:47:34;;;;;;;30.85;18.17;;;5.60;79.90;;;;;;5114002;27;20226;-71
2022/01/29 00:50:02;;;;;;;29.70;17.35;;;5.60;79.90;;;;;;5116518;27;20207;-71
2022/01/29 00:52:30;;;;;;;30.67;18.50;;;5.60;80.00;;;;;;5116258;27;20255;-71
2022/01/29 00:54:58;;;;;;;30.52;15.77;;;5.60;80.20;;;;;;5117245;27;20216;-71
2022/01/29 00:57:28;;;;;;;26.45;15.75;;;5.60;80.00;;;;;;5116895;27;20216;-71
2022/01/29 00:59:56;;;;;;;30.10;16.20;;;5.60;80.20;;;;;;5116998;27;20866;-72
2022/01/29 01:02:25;;;;;;;29.00;16.08;;;5.70;80.20;;;;;;5115209;27;20247;-73
2022/01/29 01:04:53;;;;;;;25.40;15.32;;;5.70;80.20;;;;;;5118191;27;20289;-70
2022/01/29 01:07:21;;;;;;;28.90;16.45;;;5.70;80.20;;;;;;5117225;27;20210;-70
2022/01/29 01:09:49;;;;;;;23.92;14.93;;;5.70;80.10;;;;;;5102589;27;20228;-69
2022/01/29 01:12:17;;;;;;;25.48;14.80;;;5.70;80.10;;;;;;5101963;27;20217;-70
2022/01/29 01:14:46;;;;;;;27.02;14.63;;;5.70;80.10;;;;;;5118327;27;21126;-72
2022/01/29 01:17:14;;;;;;;26.98;15.48;;;5.70;80.10;;;;;;5121016;27;20243;-72
2022/01/29 01:19:44;;;;;;;25.40;15.05;;;5.70;80.20;;;;;;5097002;27;20198;-71
2022/01/29 01:22:14;;;;;;;22.20;14.30;;;5.70;80.20;;;;;;5117999;27;20213;-71
2022/01/29 01:24:42;;;;;;;25.13;14.02;;;5.60;80.20;;;;;;5095991;28;20339;-75
2022/01/29 01:27:10;;;;;;;22.85;13.63;;;5.60;80.30;;;;;;5114645;27;20226;-73
2022/01/29 01:29:38;;;;;;;19.33;13.00;;;5.60;80.20;;;;;;5111324;27;20205;-69
2022/01/29 01:32:10;;;;;;;19.48;13.63;;;5.60;80.30;;;;;;5114262;27;20271;-73
2022/01/29 01:34:42;;;;;;;22.80;12.75;;;5.60;80.30;;;;;;5101477;28;20332;-69
2022/01/29 01:37:18;;;;;;;23.33;13.63;;;5.60;80.30;;;;;;5111232;27;20229;-72
2022/01/29 01:39:46;;;;;;;24.40;13.05;;;5.60;80.40;;;;;;5115412;27;20330;-71
2022/01/29 01:42:14;;;;;;;18.75;11.93;;;5.60;80.40;;;;;;5114202;27;20885;-70
2022/01/29 01:44:45;;;;;;;19.58;11.90;;;5.60;80.40;;;;;;5096099;28;20193;-74
2022/01/29 01:47:15;;;;;;;22.15;12.48;;;5.60;80.30;;;;;;5112972;27;20230;-71
2022/01/29 01:49:43;;;;;;;19.23;11.70;;;5.60;80.30;;;;;;5113276;27;20203;-71
2022/01/29 01:52:14;;;;;;;20.90;11.80;;;5.60;80.30;;;;;;5115594;27;21102;-71
2022/01/29 01:54:44;;;;;;;17.90;10.77;;;5.60;80.40;;;;;;5112444;27;20198;-71
2022/01/29 01:57:12;;;;;;;16.92;11.27;;;5.60;80.30;;;;;;5113566;27;20286;-71
2022/01/29 01:59:40;;;;;;;17.50;11.57;;;5.60;80.30;;;;;;5112940;27;20682;-71
2022/01/29 02:02:09;;;;;;;20.55;11.50;;;5.60;80.30;;;;;;5118101;27;20270;-71
2022/01/29 02:04:38;;;;;;;19.40;11.95;;;5.60;80.30;;;;;;5115812;27;20711;-71
2022/01/29 02:07:06;;;;;;;19.95;10.93;;;5.60;80.30;;;;;;5116131;27;20211;-71
2022/01/29 02:09:38;;;;;;;18.90;10.68;;;5.60;80.30;;;;;;5121688;27;20197;-71
2022/01/29 02:12:09;;;;;;;17.80;11.32;;;5.60;80.40;;;;;;5119100;27;20244;-72
2022/01/29 02:14:38;;;;;;;16.65;10.82;;;5.60;80.30;;;;;;5123552;27;20197;-73
2022/01/29 02:17:08;;;;;;;18.98;10.85;;;5.60;80.30;;;;;;5124020;27;20240;-72
2022/01/29 02:19:37;;;;;;;17.27;11.18;;;5.60;80.30;;;;;;5120523;27;20870;-72
2022/01/29 02:22:07;;;;;;;22.58;12.60;;;5.60;80.30;;;;;;5104244;27;20663;-72
2022/01/29 02:24:36;;;;;;;20.85;10.95;;;5.50;80.30;;;;;;5118933;27;20244;-71
2022/01/29 02:27:04;;;;;;;17.67;10.70;;;5.60;80.30;;;;;;5120023;27;20230;-71
2022/01/29 02:29:33;;;;;;;16.15;11.20;;;5.60;80.20;;;;;;5106907;27;20259;-71
2022/01/29 02:32:01;;;;;;;20.25;11.00;;;5.60;80.30;;;;;;5121297;27;20267;-71
2022/01/29 02:34:30;;;;;;;20.00;11.80;;;5.60;80.30;;;;;;5114366;27;20195;-71
2022/01/29 02:36:58;;;;;;;19.30;11.23;;;5.50;80.30;;;;;;5112291;27;20260;-71
2022/01/29 02:39:28;;;;;;;17.98;11.00;;;5.50;80.30;;;;;;5120110;27;20803;-71
2022/01/29 02:41:58;;;;;;;17.42;10.25;;;5.50;80.20;;;;;;5116282;27;20259;-71
2022/01/29 02:44:26;;;;;;;19.17;11.38;;;5.50;80.20;;;;;;5116629;27;20483;-71
2022/01/29 02:46:57;;;;;;;25.58;10.52;;;5.50;80.30;;;;;;5099803;27;20225;-73
2022/01/29 02:49:27;;;;;;;19.02;11.88;;;5.50;80.30;;;;;;5118637;27;20247;-70
2022/01/29 02:51:57;;;;;;;18.83;10.70;;;5.50;80.30;;;;;;5116690;27;20199;-71
2022/01/29 02:54:28;;;;;;;17.10;11.18;;;5.50;80.40;;;;;;5120491;27;20863;-71
2022/01/29 02:56:55;;;;;;;17.40;10.63;;;5.50;80.40;;;;;;5114332;27;20213;-73
2022/01/29 02:59:23;;;;;;;20.17;11.50;;;5.50;80.40;;;;;;5106588;27;20197;-72
2022/01/29 03:01:51;;;;;;;16.40;10.40;;;5.60;80.40;;;;;;5121489;27;20220;-71
2022/01/29 03:04:19;;;;;;;20.15;11.30;;;5.50;80.30;;;;;;5116767;27;20199;-70
2022/01/29 03:06:47;;;;;;;17.13;9.90;;;5.50;80.40;;;;;;5114921;27;20634;-70
2022/01/29 03:09:15;;;;;;;17.65;11.27;;;5.50;80.40;;;;;;5118228;27;20281;-72
2022/01/29 03:11:44;;;;;;;16.67;10.40;;;5.50;80.40;;;;;;5115795;27;20198;-72
2022/01/29 03:14:12;;;;;;;18.83;9.95;;;5.50;80.50;;;;;;5120064;27;20202;-71
2022/01/29 03:16:40;;;;;;;16.67;10.30;;;5.50;80.50;;;;;;5117940;27;20761;-71
2022/01/29 03:19:08;;;;;;;19.25;10.82;;;5.60;80.50;;;;;;5120846;27;20210;-71
2022/01/29 03:21:36;;;;;;;17.83;10.77;;;5.60;80.40;;;;;;5096777;27;20233;-71
2022/01/29 03:24:04;;;;;;;16.58;10.25;;;5.60;80.40;;;;;;5118185;27;20206;-71
2022/01/29 03:26:33;;;;;;;18.45;11.40;;;5.60;80.40;;;;;;5114421;27;20267;-71
2022/01/29 03:29:02;;;;;;;18.48;10.48;;;5.60;80.40;;;;;;5119670;27;20252;-71
2022/01/29 03:31:30;;;;;;;17.83;9.75;;;5.60;80.50;;;;;;5098489;27;20257;-71
2022/01/29 03:33:58;;;;;;;17.58;10.43;;;5.60;80.40;;;;;;5106768;27;20277;-73
2022/01/29 03:36:26;;;;;;;18.48;10.38;;;5.60;80.60;;;;;;5103653;27;20370;-72
2022/01/29 03:38:54;;;;;;;16.45;9.88;;;5.60;80.50;;;;;;5116006;27;20220;-71
2022/01/29 03:41:22;;;;;;;18.92;9.35;;;5.70;80.50;;;;;;5119627;27;20961;-70
2022/01/29 03:43:52;;;;;;;15.02;9.63;;;5.70;80.40;;;;;;5115987;27;20210;-71
2022/01/29 03:46:22;;;;;;;14.98;9.70;;;5.70;80.40;;;;;;5097268;27;20783;-70
2022/01/29 03:48:49;;;;;;;14.05;8.95;;;5.70;80.40;;;;;;5115883;27;20206;-72
2022/01/29 03:51:17;;;;;;;17.77;9.98;;;5.70;80.50;;;;;;5117405;27;20719;-72
2022/01/29 03:53:46;;;;;;;16.80;9.35;;;5.70;80.40;;;;;;5119114;27;20218;-70
2022/01/29 03:56:14;;;;;;;15.30;9.13;;;5.70;80.30;;;;;;5115446;27;21196;-74
2022/01/29 03:58:43;;;;;;;14.02;9.50;;;5.70;80.30;;;;;;5099228;27;20226;-74
2022/01/29 04:01:11;;;;;;;14.52;9.40;;;5.70;80.40;;;;;;5116863;27;20226;-70
2022/01/29 04:03:41;;;;;;;14.73;9.40;;;5.70;80.50;;;;;;5113543;27;20210;-71
2022/01/29 04:06:09;;;;;;;18.50;9.93;;;5.70;80.30;;;;;;5120268;27;20453;-72
2022/01/29 04:08:41;;;;;;;14.07;9.38;;;5.70;80.30;;;;;;5119422;27;20244;-70
2022/01/29 04:11:11;;;;;;;16.55;10.10;;;5.70;80.30;;;;;;5116971;27;20273;-72
2022/01/29 04:13:41;;;;;;;16.85;8.65;;;5.70;80.30;;;;;;5112623;27;20827;-71
2022/01/29 04:16:09;;;;;;;16.02;9.30;;;5.70;80.30;;;;;;5116361;27;20298;-73
2022/01/29 04:18:37;;;;;;;16.08;9.20;;;5.70;80.30;;;;;;5116179;27;20249;-72
2022/01/29 04:21:07;;;;;;;14.63;8.85;;;5.70;80.40;;;;;;5116564;27;20701;-69
2022/01/29 04:23:35;;;;;;;14.15;8.40;;;5.60;80.40;;;;;;5112687;27;20203;-70
2022/01/29 04:26:05;;;;;;;16.48;8.43;;;5.70;80.30;;;;;;5117740;27;20270;-70
2022/01/29 04:28:38;;;;;;;13.65;8.40;;;5.60;80.30;;;;;;5100370;27;20277;-71
2022/01/29 04:31:11;;;;;;;17.02;9.82;;;5.60;80.40;;;;;;5116749;27;20222;-72
2022/01/29 04:33:39;;;;;;;15.23;9.20;;;5.50;80.50;;;;;;5095830;28;20822;-72
2022/01/29 04:36:09;;;;;;;18.10;9.95;;;5.50;80.60;;;;;;5115974;27;20620;-72
2022/01/29 04:38:37;;;;;;;14.90;9.20;;;5.50;80.60;;;;;;5102802;27;20884;-73
2022/01/29 04:41:06;;;;;;;14.73;9.05;;;5.50;80.60;;;;;;5116863;27;21578;-71
2022/01/29 04:43:35;;;;;;;15.38;9.30;;;5.50;80.70;;;;;;5112175;27;20217;-71
2022/01/29 04:46:08;;;;;;;18.70;11.23;;;5.60;80.70;;;;;;5109139;27;20887;-71
2022/01/29 04:48:36;;;;;;;18.33;10.98;;;5.60;80.70;;;;;;5118736;27;20251;-71
2022/01/29 04:51:04;;;;;;;14.48;9.20;;;5.50;80.70;;;;;;5101242;27;20695;-72
2022/01/29 04:53:33;;;;;;;20.55;10.45;;;5.50;80.70;;;;;;5102627;27;20881;-70
2022/01/29 04:56:01;;;;;;;15.75;9.45;;;5.60;80.80;;;;;;5104321;27;20257;-72
2022/01/29 04:58:29;;;;;;;14.35;9.57;;;5.50;80.80;;;;;;5109350;27;20204;-70
2022/01/29 05:00:57;;;;;;;15.77;10.38;;;5.50;80.80;;;;;;5117115;27;20260;-73
2022/01/29 05:03:28;;;;;;;17.08;10.25;;;5.50;80.90;;;;;;5103567;27;20234;-71
2022/01/29 05:05:56;;;;;;;16.88;9.90;;;5.50;80.80;;;;;;5112990;27;20746;-70
2022/01/29 05:08:25;;;;;;;18.10;10.90;;;5.60;80.80;;;;;;5113976;27;20189;-75
2022/01/29 05:10:54;;;;;;;15.50;9.57;;;5.60;80.80;;;;;;5113362;27;20206;-73
2022/01/29 05:13:26;;;;;;;16.60;9.98;;;5.50;80.80;;;;;;5114367;27;20211;-69
2022/01/29 05:16:11;;;;;;;19.45;10.18;;;5.50;80.90;;;;;;5113067;27;20596;-72
2022/01/29 05:27:01;;;;;;;20.33;10.98;;;5.40;81.20;;;;;;5112089;27;20785;-70
2022/01/29 05:29:31;;;;;;;17.75;11.25;;;5.50;81.20;;;;;;5102724;27;20930;-73
2022/01/29 05:31:59;;;;;;;17.05;11.05;;;5.50;81.10;;;;;;5109458;27;20253;-71
2022/01/29 05:34:27;;;;;;;23.23;11.52;;;5.50;81.10;;;;;;5111445;27;20309;-71
2022/01/29 05:36:56;;;;;;;19.00;11.20;;;5.50;81.10;;;;;;5113159;27;20277;-71
2022/01/29 05:39:25;;;;;;;18.08;12.02;;;5.50;81.20;;;;;;5119899;27;20221;-71
2022/01/29 05:41:53;;;;;;;19.02;12.45;;;5.50;81.20;;;;;;5123697;27;20202;-71
2022/01/29 05:44:23;;;;;;;16.75;10.65;;;5.50;81.20;;;;;;5122986;27;20194;-71
2022/01/29 05:46:51;;;;;;;18.35;11.43;;;5.50;81.10;;;;;;5118417;27;20223;-71
2022/01/29 05:49:19;;;;;;;18.48;12.00;;;5.50;81.20;;;;;;5101709;27;20202;-71
2022/01/29 05:51:47;;;;;;;21.90;11.77;;;5.50;81.30;;;;;;5118569;27;20612;-71
2022/01/29 05:54:15;;;;;;;21.77;12.10;;;5.50;81.30;;;;;;5105808;27;20764;-72
2022/01/29 05:56:43;;;;;;;19.13;11.57;;;5.50;81.30;;;;;;5102209;27;20232;-72
2022/01/29 05:59:11;;;;;;;21.70;12.43;;;5.50;81.30;;;;;;5111517;27;20230;-71
2022/01/29 06:01:40;;;;;;;19.33;11.18;;;5.50;81.30;;;;;;5104517;27;20589;-71
2022/01/29 06:04:09;;;;;;;16.30;11.10;;;5.50;81.30;;;;;;5119245;27;20210;-70
2022/01/29 06:06:37;;;;;;;19.63;10.98;;;5.50;81.30;;;;;;5116269;27;20214;-71
2022/01/29 06:09:05;;;;;;;18.02;11.45;;;5.60;81.30;;;;;;5122216;27;20209;-70
2022/01/29 06:11:33;;;;;;;20.80;11.20;;;5.60;81.20;;;;;;5103252;27;20196;-70
2022/01/29 06:14:01;;;;;;;17.52;10.50;;;5.60;81.30;;;;;;5125761;27;20206;-72
2022/01/29 06:16:30;;;;;;;17.70;10.40;;;5.60;81.30;;;;;;5118689;27;20726;-72
2022/01/29 06:18:59;;;;;;;20.50;12.02;;;5.60;81.30;;;;;;5104836;27;20211;-72
2022/01/29 06:21:27;;;;;;;21.15;11.88;;;5.60;81.30;;;;;;5123193;27;20202;-70
2022/01/29 06:23:55;;;;;;;18.23;10.65;;;5.60;81.30;;;;;;5119051;27;20199;-71
2022/01/29 06:26:23;;;;;;;22.63;11.38;;;5.60;81.40;;;;;;5099880;27;20222;-73
2022/01/29 06:28:51;;;;;;;22.67;12.13;;;5.60;81.40;;;;;;5102969;27;20206;-72
2022/01/29 06:31:19;;;;;;;17.40;10.63;;;5.60;81.40;;;;;;5120569;27;20286;-73
2022/01/29 06:33:47;;;;;;;24.02;11.00;;;5.60;81.30;;;;;;5115789;27;20199;-71
2022/01/29 06:36:17;;;;;;;21.90;12.18;;;5.60;81.30;;;;;;5109418;27;20234;-70
2022/01/29 06:38:45;;;;;;;20.42;11.70;;;5.60;81.40;;;;;;5123528;27;20218;-72
2022/01/29 06:41:13;;;;;;;19.27;11.85;;;5.60;81.30;;;;;;5126095;27;20654;-73
2022/01/29 06:43:41;;;;;;;17.23;10.48;;;5.60;81.30;;;;;;5108622;27;20221;-72
2022/01/29 06:46:09;;;;;;;20.35;10.50;;;5.60;81.40;;;;;;5118660;27;20737;-73
2022/01/29 06:48:37;;;;;;;20.60;11.32;;;5.60;81.30;;;;;;5119762;27;20205;-73
2022/01/29 06:51:05;;;;;;;17.60;10.60;;;5.60;81.40;;;;;;5117435;27;20192;-73
2022/01/29 06:53:35;;;;;;;17.92;11.82;;;5.60;81.40;;;;;;5121220;27;20255;-72
2022/01/29 06:56:03;;;;;;;18.05;10.90;;;5.60;81.40;;;;;;5117368;27;20616;-72
2022/01/29 06:58:31;;;;;;;17.05;11.07;;;5.60;81.40;;;;;;5120805;27;20558;-73
2022/01/29 07:01:19;;;;;;;17.60;11.23;;;5.60;81.30;;;;;;5118902;27;20248;-70
2022/01/29 07:03:47;;;;;;;17.63;10.70;;;5.60;81.30;;;;;;5117824;27;20213;-72
2022/01/29 07:06:15;;;;;;;19.90;10.65;;;5.60;81.30;;;;;;5116989;27;20281;-71
2022/01/29 07:08:44;;;;;;;16.30;10.05;;;5.70;81.30;;;;;;5119743;27;20240;-72
2022/01/29 07:11:12;;;;;;;19.95;11.00;;;5.70;81.20;;;;;;5122230;27;20213;-72
2022/01/29 07:13:40;;;;;;;20.83;11.52;;;5.60;81.30;;;;;;5103352;27;20256;-73
2022/01/29 07:16:08;;;;;;;17.90;11.13;;;5.60;81.40;;;;;;5098529;27;20234;-73
2022/01/29 07:18:36;;;;;;;17.73;11.23;;;5.60;81.30;;;;;;5117745;27;20225;-72
2022/01/29 07:21:04;;;;;;;20.85;11.32;;;5.60;81.30;;;;;;5121280;27;20723;-73
2022/01/29 07:23:35;;;;;;;19.85;11.35;;;5.50;81.50;;;;;;5114994;27;20206;-73
2022/01/29 07:26:04;;;;;;;20.75;11.02;;;5.50;81.50;;;;;;5116181;27;20862;-71
2022/01/29 07:28:33;;;;;;;20.67;11.00;;;5.50;81.50;;;;;;5096648;27;20205;-71
2022/01/29 07:31:00;;;;;;;17.83;10.60;;;5.50;81.50;;;;;;5116995;27;20233;-71
2022/01/29 07:33:29;;;;;;;16.80;10.30;;;5.50;81.50;;;;;;5117017;27;20206;-71
2022/01/29 07:35:57;;;;;;;18.77;11.60;;;5.50;81.80;;;;;;5116664;27;20278;-71
2022/01/29 07:38:25;;;;;;;20.92;11.45;;;5.50;81.60;;;;;;5100279;27;20250;-71
2022/01/29 07:40:53;;;;;;;18.33;11.07;;;5.60;81.40;;;;;;5118559;27;20747;-71
2022/01/29 07:43:22;;;;;;;18.83;10.88;;;5.50;81.60;;;;;;5114420;27;20243;-71
2022/01/29 07:45:50;;;;;;;17.60;12.20;;;5.50;81.80;;;;;;5110096;27;20255;-71
2022/01/29 07:48:18;;;;;;;20.55;11.98;;;5.50;81.80;;;;;;5116732;27;20213;-71
2022/01/29 07:50:46;;;;;;;20.13;12.05;;;5.50;81.80;;;;;;5114780;27;20274;-71
2022/01/29 07:53:14;;;;;;;18.42;10.80;;;5.50;81.90;;;;;;5113754;27;20237;-71
2022/01/29 07:55:42;;;;;;;18.92;10.98;;;5.50;81.80;;;;;;5112847;27;20222;-71
2022/01/29 07:58:10;;;;;;;18.67;10.82;;;5.50;81.80;;;;;;5116239;27;20297;-72
2022/01/29 08:00:39;;;;;;;18.38;11.40;;;5.50;82.10;;;;;;5101421;27;20302;-71
2022/01/29 08:03:07;;;;;;;16.42;9.45;;;5.50;81.90;;;;;;5115229;27;20262;-71
2022/01/29 08:05:36;;;;;;;20.13;10.05;;;5.50;82.10;;;;;;5117328;27;20222;-71
2022/01/29 08:08:04;;;;;;;20.65;10.88;;;5.50;82.00;;;;;;5092766;27;20205;-71
2022/01/29 08:10:32;;;;;;;17.55;10.70;;;5.50;82.10;;;;;;5112733;27;20612;-71
2022/01/29 08:13:00;;;;;;;20.00;10.75;;;5.50;82.10;;;;;;5108065;27;20198;-71
2022/01/29 08:15:29;;;;;;;20.35;11.02;;;5.50;82.10;;;;;;5111026;27;20222;-73
2022/01/29 08:17:58;;;;;;;16.20;9.85;;;5.50;82.10;;;;;;5097869;27;20202;-72
2022/01/29 08:20:26;;;;;;;21.33;9.98;;;5.60;82.20;;;;;;5112983;27;20207;-72
2022/01/29 08:22:54;;;;;;;15.02;8.48;;;5.60;82.10;;;;;;5111173;27;20206;-72
2022/01/29 08:25:22;;;;;;;14.15;8.55;;;5.60;82.20;;;;;;5112730;27;20241;-71
2022/01/29 08:27:50;;;;;;;15.23;9.93;;;5.60;82.30;;;;;;5104325;27;20202;-70
2022/01/29 08:30:20;;;;;;;12.32;8.45;;;5.60;82.20;;;;;;5119838;27;20207;-72
2022/01/29 08:32:48;;;;;;;13.32;8.02;;;5.60;82.30;;;;;;5100368;27;20213;-73
2022/01/29 08:35:17;;;;;;;12.27;7.05;;;5.60;82.30;;;;;;5096494;27;20268;-71
2022/01/29 08:37:46;;;;;;;13.02;7.90;;;5.60;82.30;;;;;;5114979;27;20201;-73
2022/01/29 08:40:16;;;;;;;10.60;6.95;;;5.60;82.30;;;;;;5101568;27;20233;-70
2022/01/29 08:42:44;;;;;;;11.25;7.85;;;5.60;82.30;;;;;;5113510;27;20618;-70
2022/01/29 08:45:13;;;;;;;11.18;6.75;;;5.60;82.50;;;;;;5113481;27;20206;-72
2022/01/29 08:47:41;;;;;;;11.45;6.22;;;5.50;82.40;;;;;;5115499;27;20271;-73
2022/01/29 08:50:10;;;;;;;9.95;6.15;;;5.60;82.50;;;;;;5116803;27;20197;-72
2022/01/29 08:52:40;;;;;;;11.43;6.20;;;5.70;82.30;;;;;;5112391;27;20206;-71
2022/01/29 08:55:10;;;;;;;10.52;6.68;;;5.70;82.30;;;;;;5115893;27;20213;-73
2022/01/29 08:57:38;;;;;;;10.32;6.68;;;5.70;82.20;;;;;;5116485;27;20793;-72
2022/01/29 09:00:09;;;;;;;8.45;5.63;;;5.70;82.30;;;;;;5107728;27;20702;-71
2022/01/29 09:02:37;;;;;;;9.10;5.60;;;5.60;82.40;;;;;;5114059;27;20213;-71
2022/01/29 09:05:06;;;;;;;13.30;5.82;;;5.60;82.60;;;;;;5111861;27;20259;-71
2022/01/29 09:07:35;;;;;;;9.70;5.75;;;5.60;82.50;;;;;;5095915;27;20879;-73
2022/01/29 09:10:05;;;;;;;8.50;4.90;;;5.60;82.60;;;;;;5120113;27;20614;-71
2022/01/29 09:12:34;;;;;;;8.48;4.95;;;5.60;82.70;;;;;;5094724;27;20308;-70
2022/01/29 09:15:02;;;;;;;11.82;4.95;;;5.60;82.70;;;;;;5099035;27;20654;-73
2022/01/29 09:17:29;;;;;;;10.75;5.30;;;5.60;82.70;;;;;;5108611;27;20270;-72
2022/01/29 09:19:57;;;;;;;7.85;5.10;;;5.70;82.70;;;;;;5113100;27;20209;-72
2022/01/29 09:22:25;;;;;;;7.03;4.40;;;5.70;82.70;;;;;;5099415;28;20248;-72
2022/01/29 09:24:53;;;;;;;8.18;4.70;;;5.60;82.80;;;;;;5091373;28;20268;-71
2022/01/29 09:27:22;;;;;;;7.60;5.20;;;5.70;82.90;;;;;;5113257;27;20279;-73
2022/01/29 09:29:50;;;;;;;7.82;4.32;;;5.70;82.90;;;;;;5120699;27;20572;-73
2022/01/29 09:32:18;;;;;;;7.40;4.32;;;5.70;82.70;;;;;;5119229;27;20222;-71
2022/01/29 09:34:46;;;;;;;7.07;4.60;;;5.80;82.90;;;;;;5114844;28;20246;-71
2022/01/29 09:37:15;;;;;;;6.10;4.25;;;5.80;82.60;;;;;;5098321;27;20891;-71
2022/01/29 09:39:43;;;;;;;6.95;4.55;;;5.70;82.70;;;;;;5115535;27;20193;-71
2022/01/29 09:42:11;;;;;;;7.60;4.18;;;5.80;82.80;;;;;;5112559;27;20231;-71
2022/01/29 09:44:42;;;;;;;7.88;4.55;;;5.80;82.70;;;;;;5114302;28;20211;-71
2022/01/29 09:47:11;;;;;;;7.60;4.25;;;5.80;82.80;;;;;;5104277;27;20241;-71
2022/01/29 09:49:39;;;;;;;6.38;4.10;;;5.90;82.70;;;;;;5096963;28;20200;-71
2022/01/29 09:52:08;;;;;;;7.95;4.53;;;5.90;82.90;;;;;;5094997;28;20239;-71
2022/01/29 09:54:36;;;;;;;7.20;4.55;;;5.90;82.80;;;;;;5114683;28;20244;-71
2022/01/29 09:57:05;;;;;;;6.78;4.18;;;5.90;82.70;;;;;;5113083;27;20263;-71
2022/01/29 09:59:33;;;;;;;6.80;4.32;;;6.00;82.70;;;;;;5113525;27;20773;-71
2022/01/29 10:02:02;;;;;;;8.68;5.13;;;6.00;82.70;;;;;;5114938;27;20833;-71
2022/01/29 10:04:46;;;;;;;6.70;3.95;;;6.00;82.90;;;;;;5113068;27;20281;-71
2022/01/29 10:07:15;;;;;;;7.50;4.43;;;6.00;82.90;;;;;;5116618;27;20877;-71
2022/01/29 10:09:43;;;;;;;5.35;3.72;;;6.00;82.90;;;;;;5116948;27;20266;-71
2022/01/29 10:12:20;;;;;;;6.57;4.18;;;6.00;83.20;;;;;;5115929;27;20250;-71
2022/01/29 10:14:53;;;;;;;6.80;4.43;;;6.10;83.50;;;;;;5115705;28;20208;-71
2022/01/29 10:17:44;;;;;;;6.40;4.20;;;6.20;83.30;;;;;;5114283;27;20222;-71
2022/01/29 10:20:18;;;;;;;6.32;4.35;;;6.20;83.20;;;;;;5115095;27;20223;-71
2022/01/29 10:22:49;;;;;;;10.05;4.50;;;6.20;83.20;;;;;;5113822;27;20301;-71
2022/01/29 10:25:20;;;;;;;16.70;6.05;;;6.20;83.10;;;;;;5111467;27;20653;-71
2022/01/29 10:28:11;;;;;;;7.90;4.65;;;6.20;83.30;;;;;;5118381;27;20198;-71
2022/01/29 10:30:56;;;;;;;11.73;4.50;;;6.20;83.20;;;;;;5119979;27;20231;-71
2022/01/29 10:33:27;;;;;;;6.45;4.25;;;6.20;83.20;;;;;;5115196;27;20199;-71
2022/01/29 10:35:56;;;;;;;6.03;3.90;;;6.20;83.10;;;;;;5113461;27;20245;-71
2022/01/29 10:38:27;;;;;;;6.65;3.83;;;6.20;83.20;;;;;;5102264;27;20243;-71
2022/01/29 10:41:23;;;;;;;6.30;4.30;;;6.20;83.20;;;;;;5113851;27;20525;-71
2022/01/29 10:44:12;;;;;;;6.43;3.75;;;6.20;83.20;;;;;;5114767;27;20228;-71
2022/01/29 10:46:44;;;;;;;6.85;4.05;;;6.20;83.20;;;;;;5115504;27;20274;-71
2022/01/29 10:49:25;;;;;;;5.78;3.75;;;6.20;83.20;;;;;;5120997;27;20198;-71
2022/01/29 10:52:05;;;;;;;6.47;3.83;;;6.30;83.20;;;;;;5116885;27;20190;-71
2022/01/29 10:54:35;;;;;;;4.93;3.50;;;6.20;83.10;;;;;;5113798;27;20208;-71
2022/01/29 10:57:05;;;;;;;5.15;3.30;;;6.20;83.10;;;;;;5117236;27;20624;-71
2022/01/29 10:59:35;;;;;;;7.47;4.05;;;6.20;83.20;;;;;;5113108;27;20648;-71
2022/01/29 11:02:05;;;;;;;7.05;3.70;;;6.30;83.20;;;;;;5115619;27;20288;-71
2022/01/29 11:04:37;;;;;;;5.20;3.80;;;6.30;83.00;;;;;;5115980;27;20732;-71
2022/01/29 11:07:10;;;;;;;7.47;4.47;;;6.30;83.00;;;;;;5114597;27;20225;-71
2022/01/29 11:09:41;;;;;;;5.10;3.50;;;6.40;83.00;;;;;;5095400;27;20205;-71
2022/01/29 11:12:11;;;;;;;6.03;3.63;;;6.40;82.80;;;;;;5097069;27;20253;-71
2022/01/29 11:14:41;;;;;;;5.18;3.35;;;6.30;82.80;;;;;;5098041;27;20251;-71
2022/01/29 11:17:10;;;;;;;6.30;3.58;;;6.30;82.80;;;;;;5115575;27;20240;-71
2022/01/29 11:19:41;;;;;;;6.45;3.70;;;6.30;83.00;;;;;;5109732;27;20233;-71
2022/01/29 11:22:12;;;;;;;5.60;3.10;;;6.40;82.90;;;;;;5112182;27;20271;-71
2022/01/29 11:24:43;;;;;;;4.63;2.80;;;6.30;83.00;;;;;;5114104;27;20221;-71
2022/01/29 11:27:25;;;;;;;4.10;2.88;;;6.30;83.10;;;;;;5097032;27;20227;-72
2022/01/29 11:30:02;;;;;;;4.55;2.65;;;6.30;83.10;;;;;;5115180;27;20672;-71
2022/01/29 11:32:33;;;;;;;5.43;3.20;;;6.30;83.00;;;;;;5115276;27;20217;-71
2022/01/29 11:35:17;;;;;;;5.10;2.80;;;6.30;83.00;;;;;;5094033;27;20202;-72
2022/01/29 11:37:57;;;;;;;6.03;2.83;;;6.30;83.20;;;;;;5115220;27;20195;-72
2022/01/29 11:40:30;;;;;;;5.97;3.17;;;6.30;83.10;;;;;;5100842;27;20725;-71
2022/01/29 11:43:10;;;;;;;4.82;2.83;;;6.40;82.90;;;;;;5100749;27;20215;-72
2022/01/29 11:45:46;;;;;;;4.90;2.83;;;6.40;82.90;;;;;;5116200;27;20246;-71
2022/01/29 11:49:00;;;;;;;5.50;2.95;;;6.40;82.90;;;;;;5115964;27;20207;-72
2022/01/29 11:51:54;;;;;;;6.38;3.10;;;6.40;82.90;;;;;;5117276;27;20207;-72
2022/01/29 11:54:28;;;;;;;4.60;3.10;;;6.40;83.00;;;;;;5113472;27;20960;-71
2022/01/29 11:57:15;;;;;;;4.30;3.05;;;6.30;83.20;;;;;;5115500;27;20217;-72
2022/01/29 11:59:43;;;;;;;4.50;3.10;;;6.30;83.30;;;;;;5115180;27;20267;-71
2022/01/29 12:02:39;;;;;;;4.70;3.08;;;6.30;83.40;;;;;;5117893;27;20225;-71
2022/01/29 12:05:30;;;;;;;6.00;3.05;;;6.40;83.40;;;;;;5107749;27;20333;-72
2022/01/29 12:08:16;;;;;;;4.75;3.10;;;6.40;83.20;;;;;;5112444;27;20209;-71
2022/01/29 12:10:53;;;;;;;5.57;2.90;;;6.50;83.20;;;;;;5115845;27;20273;-72
2022/01/29 12:13:22;;;;;;;5.63;3.30;;;6.40;83.10;;;;;;5119526;27;20298;-72
2022/01/29 12:15:56;;;;;;;5.43;3.40;;;6.50;83.20;;;;;;5116781;27;20307;-72
2022/01/29 12:18:35;;;;;;;4.60;3.00;;;6.50;83.10;;;;;;5116710;27;20266;-71
2022/01/29 12:21:05;;;;;;;8.07;3.85;;;6.50;83.10;;;;;;5113975;27;20195;-71
2022/01/29 12:23:48;;;;;;;7.22;3.72;;;6.50;83.00;;;;;;5115146;27;21129;-71
2022/01/29 12:26:20;;;;;;;6.90;4.10;;;6.50;83.10;;;;;;5115935;27;20727;-72
2022/01/29 12:28:50;;;;;;;5.78;3.25;;;6.40;82.90;;;;;;5115296;27;20235;-71
2022/01/29 12:31:18;;;;;;;5.88;3.42;;;6.40;83.10;;;;;;5115981;27;20234;-70
2022/01/29 12:33:47;;;;;;;4.63;3.15;;;6.40;83.00;;;;;;5115010;27;20206;-70
2022/01/29 12:36:15;;;;;;;5.25;3.50;;;6.50;82.90;;;;;;5110969;27;20223;-70
2022/01/29 12:38:45;;;;;;;5.43;3.53;;;6.40;82.90;;;;;;5111511;27;20195;-70
2022/01/29 12:41:24;;;;;;;5.93;3.97;;;6.40;82.90;;;;;;5096725;27;20206;-70
2022/01/29 12:43:57;;;;;;;6.03;3.83;;;6.40;82.90;;;;;;5108118;27;20719;-70
2022/01/29 12:46:28;;;;;;;5.53;3.38;;;6.40;82.90;;;;;;5108472;27;20223;-70
2022/01/29 12:49:05;;;;;;;7.88;4.03;;;6.40;82.90;;;;;;5093410;27;20785;-70
2022/01/29 12:51:33;;;;;;;5.35;3.70;;;6.40;83.00;;;;;;5115406;27;20686;-70
2022/01/29 12:54:03;;;;;;;5.55;3.72;;;6.30;83.10;;;;;;5116478;27;20258;-69
2022/01/29 12:56:33;;;;;;;6.50;4.10;;;6.30;83.20;;;;;;5116915;27;20298;-70
2022/01/29 12:59:04;;;;;;;5.65;3.40;;;6.30;83.20;;;;;;5113839;27;20223;-70
2022/01/29 13:01:33;;;;;;;6.13;3.58;;;6.30;83.20;;;;;;5118067;27;20229;-70
2022/01/29 13:04:02;;;;;;;4.95;3.60;;;6.30;83.40;;;;;;5095525;27;21098;-71
2022/01/29 13:06:30;;;;;;;6.35;3.90;;;6.30;83.60;;;;;;5102923;27;20232;-69
2022/01/29 13:09:12;;;;;;;6.55;3.70;;;6.30;83.50;;;;;;5112253;27;20251;-70